sensor_id;sensor_type;location;lat;lon;timestamp;P1;durP1;ratioP1;P2;durP2;ratioP2
10090;SDS011;5084;51.386;6.778;2023-02-19T00:01:24;13.83;;;11.77;;
10090;SDS011;5084;51.386;6.778;2023-02-19T00:03:51;13.80;;;12.40;;
10090;SDS011;5084;51.386;6.778;2023-02-19T00:06:18;16.87;;;13.97;;
10090;SDS011;5084;51.386;6.778;2023-02-19T00:08:44;16.57;;;13.13;;
10090;SDS011;5084;51.386;6.778;2023-02-19T00:11:11;14.17;;;12.67;;
10090;SDS011;5084;51.386;6.778;2023-02-19T00:13:38;14.20;;;12.80;;
10090;SDS011;5084;51.386;6.778;2023-02-19T00:16:05;14.30;;;12.80;;
10090;SDS011;5084;51.386;6.778;2023-02-19T00:18:31;12.03;;;10.83;;
10090;SDS011;5084;51.386;6.778;2023-02-19T00:20:57;14.00;;;12.60;;
10090;SDS011;5084;51.386;6.778;2023-02-19T00:23:23;13.10;;;11.63;;
10090;SDS011;5084;51.386;6.778;2023-02-19T00:25:49;12.97;;;11.57;;
10090;SDS011;5084;51.386;6.778;2023-02-19T00:28:15;13.53;;;11.93;;
10090;SDS011;5084;51.386;6.778;2023-02-19T00:30:41;12.40;;;11.23;;
10090;SDS011;5084;51.386;6.778;2023-02-19T00:33:07;13.37;;;11.83;;
10090;SDS011;5084;51.386;6.778;2023-02-19T00:35:33;11.63;;;10.53;;
10090;SDS011;5084;51.386;6.778;2023-02-19T00:37:59;12.23;;;11.00;;
10090;SDS011;5084;51.386;6.778;2023-02-19T00:40:26;12.53;;;11.33;;
10090;SDS011;5084;51.386;6.778;2023-02-19T00:42:52;12.57;;;11.33;;
10090;SDS011;5084;51.386;6.778;2023-02-19T00:45:18;13.50;;;12.13;;
10090;SDS011;5084;51.386;6.778;2023-02-19T00:47:44;13.93;;;12.47;;
10090;SDS011;5084;51.386;6.778;2023-02-19T00:50:10;14.33;;;12.80;;
10090;SDS011;5084;51.386;6.778;2023-02-19T00:52:36;13.33;;;11.93;;
10090;SDS011;5084;51.386;6.778;2023-02-19T00:55:02;13.13;;;11.93;;
10090;SDS011;5084;51.386;6.778;2023-02-19T00:57:28;13.37;;;11.97;;
10090;SDS011;5084;51.386;6.778;2023-02-19T00:59:54;11.37;;;10.37;;
10090;SDS011;5084;51.386;6.778;2023-02-19T01:02:20;11.53;;;10.37;;
10090;SDS011;5084;51.386;6.778;2023-02-19T01:04:46;12.57;;;11.37;;
10090;SDS011;5084;51.386;6.778;2023-02-19T01:07:12;11.30;;;10.30;;
10090;SDS011;5084;51.386;6.778;2023-02-19T01:09:38;13.07;;;11.87;;
10090;SDS011;5084;51.386;6.778;2023-02-19T01:12:05;12.67;;;11.03;;
10090;SDS011;5084;51.386;6.778;2023-02-19T01:14:31;12.37;;;11.00;;
10090;SDS011;5084;51.386;6.778;2023-02-19T01:16:57;11.77;;;10.53;;
10090;SDS011;5084;51.386;6.778;2023-02-19T01:19:24;12.00;;;10.83;;
10090;SDS011;5084;51.386;6.778;2023-02-19T01:21:50;10.67;;;9.50;;
10090;SDS011;5084;51.386;6.778;2023-02-19T01:24:16;13.13;;;11.73;;
10090;SDS011;5084;51.386;6.778;2023-02-19T01:26:42;11.57;;;10.47;;
10090;SDS011;5084;51.386;6.778;2023-02-19T01:29:08;12.07;;;10.10;;
10090;SDS011;5084;51.386;6.778;2023-02-19T01:31:34;11.53;;;10.33;;
10090;SDS011;5084;51.386;6.778;2023-02-19T01:34:01;11.77;;;10.53;;
10090;SDS011;5084;51.386;6.778;2023-02-19T01:36:28;10.83;;;9.73;;
10090;SDS011;5084;51.386;6.778;2023-02-19T01:38:54;10.33;;;9.33;;
10090;SDS011;5084;51.386;6.778;2023-02-19T01:41:22;10.07;;;8.67;;
10090;SDS011;5084;51.386;6.778;2023-02-19T01:43:55;12.13;;;9.80;;
10090;SDS011;5084;51.386;6.778;2023-02-19T01:46:26;10.93;;;9.70;;
10090;SDS011;5084;51.386;6.778;2023-02-19T01:48:52;13.10;;;10.77;;
10090;SDS011;5084;51.386;6.778;2023-02-19T01:51:19;10.83;;;9.73;;
10090;SDS011;5084;51.386;6.778;2023-02-19T01:53:46;13.20;;;11.70;;
10090;SDS011;5084;51.386;6.778;2023-02-19T01:56:14;12.37;;;11.17;;
10090;SDS011;5084;51.386;6.778;2023-02-19T01:58:42;12.60;;;10.50;;
10090;SDS011;5084;51.386;6.778;2023-02-19T02:01:09;13.43;;;9.83;;
10090;SDS011;5084;51.386;6.778;2023-02-19T02:03:35;11.80;;;10.60;;
10090;SDS011;5084;51.386;6.778;2023-02-19T02:06:04;13.73;;;12.30;;
10090;SDS011;5084;51.386;6.778;2023-02-19T02:08:32;11.67;;;10.57;;
10090;SDS011;5084;51.386;6.778;2023-02-19T02:11:17;12.60;;;10.63;;
10090;SDS011;5084;51.386;6.778;2023-02-19T02:13:44;13.53;;;10.67;;
10090;SDS011;5084;51.386;6.778;2023-02-19T02:16:13;14.83;;;11.60;;
10090;SDS011;5084;51.386;6.778;2023-02-19T02:21:47;13.37;;;11.07;;
10090;SDS011;5084;51.386;6.778;2023-02-19T02:24:22;14.90;;;11.97;;
10090;SDS011;5084;51.386;6.778;2023-02-19T02:30:04;14.67;;;12.10;;
10090;SDS011;5084;51.386;6.778;2023-02-19T02:32:34;14.77;;;12.50;;
10090;SDS011;5084;51.386;6.778;2023-02-19T02:35:09;13.20;;;11.80;;
10090;SDS011;5084;51.386;6.778;2023-02-19T02:37:36;16.30;;;12.50;;
10090;SDS011;5084;51.386;6.778;2023-02-19T02:40:05;14.77;;;12.60;;
10090;SDS011;5084;51.386;6.778;2023-02-19T02:42:32;15.47;;;12.77;;
10090;SDS011;5084;51.386;6.778;2023-02-19T02:45:09;15.97;;;13.53;;
10090;SDS011;5084;51.386;6.778;2023-02-19T02:48:05;19.33;;;13.43;;
10090;SDS011;5084;51.386;6.778;2023-02-19T02:50:51;14.73;;;12.73;;
10090;SDS011;5084;51.386;6.778;2023-02-19T02:53:30;18.10;;;13.83;;
10090;SDS011;5084;51.386;6.778;2023-02-19T02:56:15;16.27;;;12.97;;
10090;SDS011;5084;51.386;6.778;2023-02-19T02:58:43;14.77;;;12.80;;
10090;SDS011;5084;51.386;6.778;2023-02-19T03:01:10;17.77;;;12.03;;
10090;SDS011;5084;51.386;6.778;2023-02-19T03:04:00;18.17;;;12.53;;
10090;SDS011;5084;51.386;6.778;2023-02-19T03:06:28;16.23;;;11.83;;
10090;SDS011;5084;51.386;6.778;2023-02-19T03:09:01;13.43;;;11.83;;
10090;SDS011;5084;51.386;6.778;2023-02-19T03:11:29;14.83;;;11.93;;
10090;SDS011;5084;51.386;6.778;2023-02-19T03:14:17;17.70;;;11.97;;
10090;SDS011;5084;51.386;6.778;2023-02-19T03:17:05;14.80;;;12.53;;
10090;SDS011;5084;51.386;6.778;2023-02-19T03:19:53;16.10;;;12.33;;
10090;SDS011;5084;51.386;6.778;2023-02-19T03:22:21;14.07;;;12.13;;
10090;SDS011;5084;51.386;6.778;2023-02-19T03:24:49;16.73;;;12.23;;
10090;SDS011;5084;51.386;6.778;2023-02-19T03:27:36;15.53;;;12.60;;
10090;SDS011;5084;51.386;6.778;2023-02-19T03:30:05;17.23;;;12.00;;
10090;SDS011;5084;51.386;6.778;2023-02-19T03:32:35;12.80;;;11.30;;
10090;SDS011;5084;51.386;6.778;2023-02-19T03:35:08;14.10;;;12.53;;
10090;SDS011;5084;51.386;6.778;2023-02-19T03:37:37;14.93;;;11.87;;
10090;SDS011;5084;51.386;6.778;2023-02-19T03:40:06;13.77;;;11.53;;
10090;SDS011;5084;51.386;6.778;2023-02-19T03:55:16;14.60;;;11.00;;
10090;SDS011;5084;51.386;6.778;2023-02-19T03:57:46;18.07;;;11.30;;
10090;SDS011;5084;51.386;6.778;2023-02-19T04:00:14;13.53;;;10.90;;
10090;SDS011;5084;51.386;6.778;2023-02-19T04:05:15;15.17;;;11.67;;
10090;SDS011;5084;51.386;6.778;2023-02-19T04:07:44;13.50;;;10.23;;
10090;SDS011;5084;51.386;6.778;2023-02-19T04:10:10;16.47;;;10.77;;
10090;SDS011;5084;51.386;6.778;2023-02-19T04:12:38;16.53;;;10.97;;
10090;SDS011;5084;51.386;6.778;2023-02-19T04:15:06;17.17;;;11.80;;
10090;SDS011;5084;51.386;6.778;2023-02-19T04:17:35;12.47;;;10.03;;
10090;SDS011;5084;51.386;6.778;2023-02-19T04:20:04;15.50;;;10.47;;
10090;SDS011;5084;51.386;6.778;2023-02-19T04:22:31;12.20;;;9.50;;
10090;SDS011;5084;51.386;6.778;2023-02-19T04:24:57;14.80;;;10.37;;
10090;SDS011;5084;51.386;6.778;2023-02-19T04:27:24;13.20;;;9.83;;
10090;SDS011;5084;51.386;6.778;2023-02-19T04:29:51;11.60;;;9.27;;
10090;SDS011;5084;51.386;6.778;2023-02-19T04:32:17;14.20;;;9.23;;
10090;SDS011;5084;51.386;6.778;2023-02-19T04:34:43;12.70;;;9.70;;
10090;SDS011;5084;51.386;6.778;2023-02-19T04:37:09;14.80;;;9.23;;
10090;SDS011;5084;51.386;6.778;2023-02-19T04:39:35;10.83;;;8.63;;
10090;SDS011;5084;51.386;6.778;2023-02-19T04:42:01;12.90;;;8.50;;
10090;SDS011;5084;51.386;6.778;2023-02-19T04:44:27;15.73;;;9.40;;
10090;SDS011;5084;51.386;6.778;2023-02-19T04:46:54;14.50;;;8.00;;
10090;SDS011;5084;51.386;6.778;2023-02-19T04:49:20;10.33;;;8.17;;
10090;SDS011;5084;51.386;6.778;2023-02-19T04:51:46;13.23;;;8.67;;
10090;SDS011;5084;51.386;6.778;2023-02-19T04:54:12;13.80;;;8.43;;
10090;SDS011;5084;51.386;6.778;2023-02-19T04:56:38;10.30;;;8.17;;
10090;SDS011;5084;51.386;6.778;2023-02-19T04:59:04;9.53;;;7.90;;
10090;SDS011;5084;51.386;6.778;2023-02-19T05:01:30;13.80;;;9.30;;
10090;SDS011;5084;51.386;6.778;2023-02-19T05:03:56;12.10;;;8.27;;
10090;SDS011;5084;51.386;6.778;2023-02-19T05:06:22;13.73;;;9.13;;
10090;SDS011;5084;51.386;6.778;2023-02-19T05:08:48;10.97;;;7.80;;
10090;SDS011;5084;51.386;6.778;2023-02-19T05:11:14;13.70;;;8.40;;
10090;SDS011;5084;51.386;6.778;2023-02-19T05:13:40;10.10;;;8.17;;
10090;SDS011;5084;51.386;6.778;2023-02-19T05:16:08;11.53;;;7.40;;
10090;SDS011;5084;51.386;6.778;2023-02-19T05:18:37;10.90;;;7.67;;
10090;SDS011;5084;51.386;6.778;2023-02-19T05:21:04;12.17;;;7.70;;
10090;SDS011;5084;51.386;6.778;2023-02-19T05:23:30;11.93;;;7.97;;
10090;SDS011;5084;51.386;6.778;2023-02-19T05:25:56;14.33;;;7.93;;
10090;SDS011;5084;51.386;6.778;2023-02-19T05:28:22;10.47;;;7.23;;
10090;SDS011;5084;51.386;6.778;2023-02-19T05:30:53;12.53;;;7.90;;
10090;SDS011;5084;51.386;6.778;2023-02-19T05:33:20;9.97;;;7.80;;
10090;SDS011;5084;51.386;6.778;2023-02-19T05:35:47;9.77;;;6.83;;
10090;SDS011;5084;51.386;6.778;2023-02-19T05:38:14;15.47;;;7.80;;
10090;SDS011;5084;51.386;6.778;2023-02-19T05:40:40;8.97;;;7.37;;
10090;SDS011;5084;51.386;6.778;2023-02-19T05:43:06;10.60;;;7.60;;
10090;SDS011;5084;51.386;6.778;2023-02-19T05:45:33;10.13;;;7.07;;
10090;SDS011;5084;51.386;6.778;2023-02-19T05:47:59;11.53;;;7.80;;
10090;SDS011;5084;51.386;6.778;2023-02-19T05:50:25;11.43;;;7.90;;
10090;SDS011;5084;51.386;6.778;2023-02-19T05:52:52;13.87;;;7.83;;
10090;SDS011;5084;51.386;6.778;2023-02-19T05:55:18;12.13;;;7.30;;
10090;SDS011;5084;51.386;6.778;2023-02-19T05:57:47;12.20;;;7.40;;
10090;SDS011;5084;51.386;6.778;2023-02-19T06:00:14;9.47;;;7.03;;
10090;SDS011;5084;51.386;6.778;2023-02-19T06:02:41;11.63;;;7.17;;
10090;SDS011;5084;51.386;6.778;2023-02-19T06:05:07;10.67;;;7.77;;
10090;SDS011;5084;51.386;6.778;2023-02-19T06:07:33;10.47;;;6.83;;
10090;SDS011;5084;51.386;6.778;2023-02-19T06:09:59;9.97;;;7.37;;
10090;SDS011;5084;51.386;6.778;2023-02-19T06:12:25;13.33;;;6.80;;
10090;SDS011;5084;51.386;6.778;2023-02-19T06:14:51;9.87;;;6.67;;
10090;SDS011;5084;51.386;6.778;2023-02-19T06:17:18;8.10;;;6.23;;
10090;SDS011;5084;51.386;6.778;2023-02-19T06:19:44;15.67;;;7.20;;
10090;SDS011;5084;51.386;6.778;2023-02-19T06:22:10;9.77;;;7.37;;
10090;SDS011;5084;51.386;6.778;2023-02-19T06:24:36;10.80;;;7.07;;
10090;SDS011;5084;51.386;6.778;2023-02-19T06:27:05;9.30;;;6.47;;
10090;SDS011;5084;51.386;6.778;2023-02-19T06:29:31;9.33;;;6.27;;
10090;SDS011;5084;51.386;6.778;2023-02-19T06:31:58;8.93;;;6.17;;
10090;SDS011;5084;51.386;6.778;2023-02-19T06:34:24;16.07;;;8.00;;
10090;SDS011;5084;51.386;6.778;2023-02-19T06:36:50;10.33;;;7.40;;
10090;SDS011;5084;51.386;6.778;2023-02-19T06:39:16;8.83;;;6.03;;
10090;SDS011;5084;51.386;6.778;2023-02-19T06:41:42;10.50;;;6.77;;
10090;SDS011;5084;51.386;6.778;2023-02-19T06:44:08;13.33;;;7.03;;
10090;SDS011;5084;51.386;6.778;2023-02-19T06:46:35;15.20;;;7.13;;
10090;SDS011;5084;51.386;6.778;2023-02-19T06:49:02;12.23;;;6.53;;
10090;SDS011;5084;51.386;6.778;2023-02-19T06:51:28;10.43;;;7.53;;
10090;SDS011;5084;51.386;6.778;2023-02-19T06:53:56;12.97;;;7.10;;
10090;SDS011;5084;51.386;6.778;2023-02-19T06:58:49;10.77;;;6.43;;
10090;SDS011;5084;51.386;6.778;2023-02-19T07:01:15;9.57;;;6.13;;
10090;SDS011;5084;51.386;6.778;2023-02-19T07:03:41;9.33;;;5.87;;
10090;SDS011;5084;51.386;6.778;2023-02-19T07:06:07;14.53;;;5.77;;
10090;SDS011;5084;51.386;6.778;2023-02-19T07:08:33;13.07;;;5.87;;
10090;SDS011;5084;51.386;6.778;2023-02-19T07:10:59;15.23;;;6.67;;
10090;SDS011;5084;51.386;6.778;2023-02-19T07:13:25;6.83;;;5.43;;
10090;SDS011;5084;51.386;6.778;2023-02-19T07:15:56;6.87;;;5.70;;
10090;SDS011;5084;51.386;6.778;2023-02-19T07:18:22;11.07;;;5.80;;
10090;SDS011;5084;51.386;6.778;2023-02-19T07:20:48;9.93;;;6.03;;
10090;SDS011;5084;51.386;6.778;2023-02-19T07:23:14;6.57;;;5.47;;
10090;SDS011;5084;51.386;6.778;2023-02-19T07:25:40;13.07;;;5.70;;
10090;SDS011;5084;51.386;6.778;2023-02-19T07:28:06;8.67;;;5.80;;
10090;SDS011;5084;51.386;6.778;2023-02-19T07:30:33;10.37;;;6.30;;
10090;SDS011;5084;51.386;6.778;2023-02-19T07:32:59;11.03;;;5.73;;
10090;SDS011;5084;51.386;6.778;2023-02-19T07:35:25;7.07;;;5.60;;
10090;SDS011;5084;51.386;6.778;2023-02-19T07:37:51;8.33;;;5.80;;
10090;SDS011;5084;51.386;6.778;2023-02-19T07:40:17;8.50;;;6.37;;
10090;SDS011;5084;51.386;6.778;2023-02-19T07:42:43;9.30;;;5.70;;
10090;SDS011;5084;51.386;6.778;2023-02-19T07:45:09;7.17;;;5.80;;
10090;SDS011;5084;51.386;6.778;2023-02-19T07:47:35;9.37;;;6.33;;
10090;SDS011;5084;51.386;6.778;2023-02-19T07:50:01;8.13;;;5.80;;
10090;SDS011;5084;51.386;6.778;2023-02-19T07:52:28;10.30;;;6.33;;
10090;SDS011;5084;51.386;6.778;2023-02-19T07:54:54;8.37;;;6.20;;
10090;SDS011;5084;51.386;6.778;2023-02-19T07:57:20;9.63;;;6.43;;
10090;SDS011;5084;51.386;6.778;2023-02-19T07:59:46;8.33;;;5.80;;
10090;SDS011;5084;51.386;6.778;2023-02-19T08:02:15;9.17;;;5.80;;
10090;SDS011;5084;51.386;6.778;2023-02-19T08:05:01;8.63;;;6.23;;
10090;SDS011;5084;51.386;6.778;2023-02-19T08:07:30;11.70;;;6.40;;
10090;SDS011;5084;51.386;6.778;2023-02-19T08:09:57;8.87;;;6.17;;
10090;SDS011;5084;51.386;6.778;2023-02-19T08:12:41;9.17;;;6.30;;
10090;SDS011;5084;51.386;6.778;2023-02-19T08:15:26;10.27;;;6.67;;
10090;SDS011;5084;51.386;6.778;2023-02-19T08:17:52;9.80;;;7.03;;
10090;SDS011;5084;51.386;6.778;2023-02-19T08:20:18;10.77;;;6.53;;
10090;SDS011;5084;51.386;6.778;2023-02-19T08:22:44;12.00;;;6.97;;
10090;SDS011;5084;51.386;6.778;2023-02-19T08:25:10;9.40;;;7.30;;
10090;SDS011;5084;51.386;6.778;2023-02-19T08:27:36;6.87;;;5.83;;
10090;SDS011;5084;51.386;6.778;2023-02-19T08:30:02;7.07;;;5.97;;
10090;SDS011;5084;51.386;6.778;2023-02-19T08:32:29;8.33;;;7.40;;
10090;SDS011;5084;51.386;6.778;2023-02-19T08:34:55;9.13;;;6.77;;
10090;SDS011;5084;51.386;6.778;2023-02-19T08:37:21;7.97;;;6.63;;
10090;SDS011;5084;51.386;6.778;2023-02-19T08:39:47;11.77;;;6.80;;
10090;SDS011;5084;51.386;6.778;2023-02-19T08:42:13;11.83;;;7.30;;
10090;SDS011;5084;51.386;6.778;2023-02-19T08:44:39;10.47;;;7.17;;
10090;SDS011;5084;51.386;6.778;2023-02-19T08:47:05;9.00;;;6.47;;
10090;SDS011;5084;51.386;6.778;2023-02-19T08:49:31;12.93;;;7.30;;
10090;SDS011;5084;51.386;6.778;2023-02-19T08:51:57;11.47;;;6.87;;
10090;SDS011;5084;51.386;6.778;2023-02-19T08:54:24;14.30;;;8.10;;
10090;SDS011;5084;51.386;6.778;2023-02-19T08:56:50;10.43;;;6.40;;
10090;SDS011;5084;51.386;6.778;2023-02-19T08:59:16;8.60;;;6.97;;
10090;SDS011;5084;51.386;6.778;2023-02-19T09:01:44;12.50;;;7.33;;
10090;SDS011;5084;51.386;6.778;2023-02-19T09:04:13;10.47;;;6.50;;
10090;SDS011;5084;51.386;6.778;2023-02-19T09:06:39;10.77;;;6.37;;
10090;SDS011;5084;51.386;6.778;2023-02-19T09:09:05;11.10;;;6.97;;
10090;SDS011;5084;51.386;6.778;2023-02-19T09:11:31;8.23;;;7.33;;
10090;SDS011;5084;51.386;6.778;2023-02-19T09:13:57;8.80;;;7.10;;
10090;SDS011;5084;51.386;6.778;2023-02-19T09:16:23;7.70;;;6.63;;
10090;SDS011;5084;51.386;6.778;2023-02-19T09:18:49;11.60;;;6.40;;
10090;SDS011;5084;51.386;6.778;2023-02-19T09:21:15;9.40;;;6.67;;
10090;SDS011;5084;51.386;6.778;2023-02-19T09:23:41;9.47;;;6.97;;
10090;SDS011;5084;51.386;6.778;2023-02-19T09:26:08;10.93;;;7.10;;
10090;SDS011;5084;51.386;6.778;2023-02-19T09:28:35;7.93;;;7.00;;
10090;SDS011;5084;51.386;6.778;2023-02-19T09:31:04;11.87;;;6.90;;
10090;SDS011;5084;51.386;6.778;2023-02-19T09:33:30;9.77;;;7.43;;
10090;SDS011;5084;51.386;6.778;2023-02-19T09:35:59;10.73;;;6.60;;
10090;SDS011;5084;51.386;6.778;2023-02-19T09:38:26;10.53;;;7.27;;
10090;SDS011;5084;51.386;6.778;2023-02-19T09:40:53;9.53;;;6.73;;
10090;SDS011;5084;51.386;6.778;2023-02-19T09:43:19;10.27;;;6.97;;
10090;SDS011;5084;51.386;6.778;2023-02-19T09:45:48;11.17;;;8.30;;
10090;SDS011;5084;51.386;6.778;2023-02-19T09:48:17;7.80;;;6.10;;
10090;SDS011;5084;51.386;6.778;2023-02-19T09:50:44;9.03;;;7.03;;
10090;SDS011;5084;51.386;6.778;2023-02-19T09:53:19;9.50;;;6.37;;
10090;SDS011;5084;51.386;6.778;2023-02-19T09:55:48;12.00;;;6.53;;
10090;SDS011;5084;51.386;6.778;2023-02-19T09:58:30;8.63;;;5.63;;
10090;SDS011;5084;51.386;6.778;2023-02-19T10:00:57;7.90;;;5.57;;
10090;SDS011;5084;51.386;6.778;2023-02-19T10:03:37;6.87;;;6.17;;
10090;SDS011;5084;51.386;6.778;2023-02-19T10:06:26;7.63;;;6.20;;
10090;SDS011;5084;51.386;6.778;2023-02-19T10:09:04;7.13;;;5.47;;
10090;SDS011;5084;51.386;6.778;2023-02-19T10:11:36;6.00;;;5.40;;
10090;SDS011;5084;51.386;6.778;2023-02-19T10:14:03;7.13;;;5.30;;
10090;SDS011;5084;51.386;6.778;2023-02-19T10:16:33;13.80;;;6.33;;
10090;SDS011;5084;51.386;6.778;2023-02-19T10:18:59;7.33;;;5.23;;
10090;SDS011;5084;51.386;6.778;2023-02-19T10:21:25;6.57;;;5.40;;
10090;SDS011;5084;51.386;6.778;2023-02-19T10:23:52;146.93;;;16.67;;
10090;SDS011;5084;51.386;6.778;2023-02-19T10:26:19;11.10;;;5.67;;
10090;SDS011;5084;51.386;6.778;2023-02-19T10:28:46;7.37;;;5.57;;
10090;SDS011;5084;51.386;6.778;2023-02-19T10:31:20;9.10;;;6.03;;
10090;SDS011;5084;51.386;6.778;2023-02-19T10:33:50;13.27;;;5.47;;
10090;SDS011;5084;51.386;6.778;2023-02-19T10:36:23;6.83;;;5.10;;
10090;SDS011;5084;51.386;6.778;2023-02-19T10:38:50;7.67;;;5.60;;
10090;SDS011;5084;51.386;6.778;2023-02-19T10:41:17;8.23;;;5.10;;
10090;SDS011;5084;51.386;6.778;2023-02-19T10:43:59;7.67;;;5.33;;
10090;SDS011;5084;51.386;6.778;2023-02-19T10:46:33;7.13;;;5.80;;
10090;SDS011;5084;51.386;6.778;2023-02-19T10:49:02;8.03;;;5.70;;
10090;SDS011;5084;51.386;6.778;2023-02-19T10:51:39;10.27;;;5.50;;
10090;SDS011;5084;51.386;6.778;2023-02-19T10:56:40;8.77;;;5.70;;
10090;SDS011;5084;51.386;6.778;2023-02-19T10:59:22;7.63;;;5.73;;
10090;SDS011;5084;51.386;6.778;2023-02-19T11:02:14;11.37;;;5.43;;
10090;SDS011;5084;51.386;6.778;2023-02-19T11:04:37;44.77;;;7.43;;
10090;SDS011;5084;51.386;6.778;2023-02-19T11:07:09;22.70;;;6.17;;
10090;SDS011;5084;51.386;6.778;2023-02-19T11:09:37;17.90;;;5.90;;
10090;SDS011;5084;51.386;6.778;2023-02-19T11:12:04;4.90;;;4.30;;
10090;SDS011;5084;51.386;6.778;2023-02-19T11:14:30;8.52;;;5.28;;
10090;SDS011;5084;51.386;6.778;2023-02-19T11:16:57;7.47;;;5.20;;
10090;SDS011;5084;51.386;6.778;2023-02-19T11:19:26;8.55;;;5.65;;
10090;SDS011;5084;51.386;6.778;2023-02-19T11:21:53;6.43;;;4.87;;
10090;SDS011;5084;51.386;6.778;2023-02-19T11:26:48;5.30;;;4.80;;
10090;SDS011;5084;51.386;6.778;2023-02-19T11:29:19;7.20;;;4.83;;
10090;SDS011;5084;51.386;6.778;2023-02-19T11:31:49;6.73;;;5.10;;
10090;SDS011;5084;51.386;6.778;2023-02-19T11:34:26;6.13;;;5.07;;
10090;SDS011;5084;51.386;6.778;2023-02-19T11:37:07;9.50;;;5.33;;
10090;SDS011;5084;51.386;6.778;2023-02-19T11:39:33;6.00;;;4.63;;
10090;SDS011;5084;51.386;6.778;2023-02-19T11:42:06;5.20;;;4.70;;
10090;SDS011;5084;51.386;6.778;2023-02-19T11:55:08;5.23;;;4.33;;
10090;SDS011;5084;51.386;6.778;2023-02-19T11:57:45;4.53;;;3.60;;
10090;SDS011;5084;51.386;6.778;2023-02-19T12:00:25;3.90;;;3.47;;
10090;SDS011;5084;51.386;6.778;2023-02-19T12:08:50;3.53;;;3.20;;
10090;SDS011;5084;51.386;6.778;2023-02-19T12:13:54;2.67;;;2.47;;
10090;SDS011;5084;51.386;6.778;2023-02-19T12:16:25;4.27;;;2.67;;
10090;SDS011;5084;51.386;6.778;2023-02-19T12:21:21;3.60;;;2.60;;
10090;SDS011;5084;51.386;6.778;2023-02-19T12:26:49;2.67;;;2.43;;
10090;SDS011;5084;51.386;6.778;2023-02-19T12:32:20;2.67;;;2.33;;
10090;SDS011;5084;51.386;6.778;2023-02-19T12:35:12;3.20;;;2.73;;
10090;SDS011;5084;51.386;6.778;2023-02-19T12:38:02;2.90;;;2.40;;
10090;SDS011;5084;51.386;6.778;2023-02-19T12:43:16;2.63;;;2.43;;
10090;SDS011;5084;51.386;6.778;2023-02-19T12:48:33;2.57;;;2.37;;
10090;SDS011;5084;51.386;6.778;2023-02-19T12:51:11;3.07;;;2.50;;
10090;SDS011;5084;51.386;6.778;2023-02-19T12:56:09;2.90;;;2.63;;
10090;SDS011;5084;51.386;6.778;2023-02-19T12:58:43;3.30;;;2.57;;
10090;SDS011;5084;51.386;6.778;2023-02-19T13:01:13;3.30;;;3.00;;
10090;SDS011;5084;51.386;6.778;2023-02-19T13:03:43;2.70;;;2.50;;
10090;SDS011;5084;51.386;6.778;2023-02-19T13:08:46;2.80;;;2.60;;
10090;SDS011;5084;51.386;6.778;2023-02-19T13:11:18;3.83;;;2.60;;
10090;SDS011;5084;51.386;6.778;2023-02-19T13:13:54;3.20;;;2.90;;
10090;SDS011;5084;51.386;6.778;2023-02-19T13:16:23;3.37;;;3.07;;
10090;SDS011;5084;51.386;6.778;2023-02-19T13:19:00;3.93;;;3.53;;
10090;SDS011;5084;51.386;6.778;2023-02-19T13:21:29;3.50;;;3.20;;
10090;SDS011;5084;51.386;6.778;2023-02-19T13:24:16;3.50;;;2.97;;
10090;SDS011;5084;51.386;6.778;2023-02-19T13:37:19;4.83;;;4.43;;
10090;SDS011;5084;51.386;6.778;2023-02-19T13:39:54;7.00;;;4.57;;
10090;SDS011;5084;51.386;6.778;2023-02-19T13:42:26;5.03;;;4.17;;
10090;SDS011;5084;51.386;6.778;2023-02-19T13:44:53;4.53;;;4.13;;
10090;SDS011;5084;51.386;6.778;2023-02-19T13:50:05;4.60;;;4.20;;
10090;SDS011;5084;51.386;6.778;2023-02-19T13:52:32;5.50;;;4.40;;
10090;SDS011;5084;51.386;6.778;2023-02-19T13:57:46;6.43;;;5.23;;
10090;SDS011;5084;51.386;6.778;2023-02-19T14:05:59;8.83;;;5.43;;
10090;SDS011;5084;51.386;6.778;2023-02-19T14:11:10;8.20;;;6.40;;
10090;SDS011;5084;51.386;6.778;2023-02-19T14:19:12;10.47;;;7.00;;
10090;SDS011;5084;51.386;6.778;2023-02-19T14:21:38;7.97;;;6.53;;
10090;SDS011;5084;51.386;6.778;2023-02-19T14:24:12;8.60;;;6.60;;
10090;SDS011;5084;51.386;6.778;2023-02-19T14:26:39;11.30;;;7.53;;
10090;SDS011;5084;51.386;6.778;2023-02-19T14:29:06;9.63;;;7.20;;
10090;SDS011;5084;51.386;6.778;2023-02-19T14:31:35;9.37;;;7.60;;
10090;SDS011;5084;51.386;6.778;2023-02-19T14:34:05;13.17;;;8.03;;
10090;SDS011;5084;51.386;6.778;2023-02-19T14:42:05;10.80;;;8.77;;
10090;SDS011;5084;51.386;6.778;2023-02-19T14:47:20;10.97;;;8.77;;
10090;SDS011;5084;51.386;6.778;2023-02-19T14:49:51;9.53;;;8.63;;
10090;SDS011;5084;51.386;6.778;2023-02-19T14:52:23;9.27;;;7.97;;
10090;SDS011;5084;51.386;6.778;2023-02-19T14:57:22;8.63;;;7.83;;
10090;SDS011;5084;51.386;6.778;2023-02-19T14:59:56;11.00;;;9.47;;
10090;SDS011;5084;51.386;6.778;2023-02-19T15:02:23;11.17;;;8.47;;
10090;SDS011;5084;51.386;6.778;2023-02-19T15:04:50;8.67;;;7.70;;
10090;SDS011;5084;51.386;6.778;2023-02-19T15:07:20;10.93;;;8.40;;
10090;SDS011;5084;51.386;6.778;2023-02-19T15:09:49;9.37;;;7.97;;
10090;SDS011;5084;51.386;6.778;2023-02-19T15:12:16;10.60;;;7.27;;
10090;SDS011;5084;51.386;6.778;2023-02-19T15:14:43;9.90;;;7.17;;
10090;SDS011;5084;51.386;6.778;2023-02-19T15:17:10;8.97;;;7.83;;
10090;SDS011;5084;51.386;6.778;2023-02-19T15:19:39;10.87;;;8.23;;
10090;SDS011;5084;51.386;6.778;2023-02-19T15:22:11;9.80;;;8.73;;
10090;SDS011;5084;51.386;6.778;2023-02-19T15:24:42;8.90;;;8.00;;
10090;SDS011;5084;51.386;6.778;2023-02-19T15:27:18;8.87;;;7.97;;
10090;SDS011;5084;51.386;6.778;2023-02-19T15:29:46;10.17;;;8.30;;
10090;SDS011;5084;51.386;6.778;2023-02-19T15:32:16;8.60;;;7.67;;
10090;SDS011;5084;51.386;6.778;2023-02-19T15:34:44;8.73;;;7.83;;
10090;SDS011;5084;51.386;6.778;2023-02-19T15:37:18;9.10;;;8.20;;
10090;SDS011;5084;51.386;6.778;2023-02-19T15:39:44;9.57;;;8.40;;
10090;SDS011;5084;51.386;6.778;2023-02-19T15:42:16;8.83;;;7.80;;
10090;SDS011;5084;51.386;6.778;2023-02-19T15:47:14;9.27;;;8.27;;
10090;SDS011;5084;51.386;6.778;2023-02-19T15:50:04;9.70;;;8.70;;
10090;SDS011;5084;51.386;6.778;2023-02-19T15:52:33;9.77;;;8.20;;
10090;SDS011;5084;51.386;6.778;2023-02-19T15:55:10;10.43;;;8.23;;
10090;SDS011;5084;51.386;6.778;2023-02-19T15:57:42;10.07;;;8.80;;
10090;SDS011;5084;51.386;6.778;2023-02-19T16:00:29;9.67;;;8.67;;
10090;SDS011;5084;51.386;6.778;2023-02-19T16:02:57;10.97;;;8.47;;
10090;SDS011;5084;51.386;6.778;2023-02-19T16:05:24;15.23;;;9.23;;
10090;SDS011;5084;51.386;6.778;2023-02-19T16:08:04;11.43;;;9.37;;
10090;SDS011;5084;51.386;6.778;2023-02-19T16:10:30;8.73;;;7.87;;
10090;SDS011;5084;51.386;6.778;2023-02-19T16:13:00;11.07;;;9.13;;
10090;SDS011;5084;51.386;6.778;2023-02-19T16:15:27;10.40;;;9.30;;
10090;SDS011;5084;51.386;6.778;2023-02-19T16:17:54;10.90;;;9.03;;
10090;SDS011;5084;51.386;6.778;2023-02-19T16:20:21;8.37;;;7.53;;
10090;SDS011;5084;51.386;6.778;2023-02-19T16:22:48;10.97;;;8.13;;
10090;SDS011;5084;51.386;6.778;2023-02-19T16:25:28;10.20;;;8.03;;
10090;SDS011;5084;51.386;6.778;2023-02-19T16:27:55;8.60;;;7.37;;
10090;SDS011;5084;51.386;6.778;2023-02-19T16:30:31;9.47;;;7.53;;
10090;SDS011;5084;51.386;6.778;2023-02-19T16:35:42;12.53;;;8.23;;
10090;SDS011;5084;51.386;6.778;2023-02-19T16:38:12;6.77;;;5.87;;
10090;SDS011;5084;51.386;6.778;2023-02-19T16:45:44;6.40;;;3.57;;
10090;SDS011;5084;51.386;6.778;2023-02-19T16:48:11;4.57;;;3.80;;
10090;SDS011;5084;51.386;6.778;2023-02-19T16:50:38;4.57;;;3.83;;
10090;SDS011;5084;51.386;6.778;2023-02-19T16:53:05;3.70;;;3.13;;
10090;SDS011;5084;51.386;6.778;2023-02-19T16:55:31;3.93;;;3.20;;
10090;SDS011;5084;51.386;6.778;2023-02-19T16:57:58;3.00;;;2.63;;
10090;SDS011;5084;51.386;6.778;2023-02-19T17:00:26;3.60;;;3.30;;